Time;durP1;ratioP1;P1;durP2;ratioP2;P2;SDS_P1;SDS_P2;PMS_P1;PMS_P2;Temp;Humidity;BMP_temperature;BMP_pressure;BME280_temperature;BME280_humidity;BME280_pressure;Samples;Min_cycle;Max_cycle;Signal;HPM_P1;HPM_P2
2023/01/21 00:02:21;;;;;;;22.73;9.30;;;;;;;;;;5049066;28;20977;-60
2023/01/21 00:04:48;;;;;;;33.77;12.70;;;;;;;;;;5052732;28;20491;-60
2023/01/21 00:07:16;;;;;;;25.10;8.20;;;2.60;99.90;;;;;;5052781;28;20467;-60
2023/01/21 00:09:43;;;;;;;36.17;12.70;;;;;;;;;;5052038;28;20482;-60
2023/01/21 00:12:10;;;;;;;27.70;10.97;;;2.70;99.90;;;;;;5055158;28;20479;-60
2023/01/21 00:14:36;;;;;;;39.10;15.73;;;2.60;99.90;;;;;;5053458;28;20868;-60
2023/01/21 00:17:04;;;;;;;27.10;9.70;;;;;;;;;;5051474;28;20482;-60
2023/01/21 00:19:30;;;;;;;30.47;10.90;;;2.60;99.90;;;;;;5045563;28;21288;-60
2023/01/21 00:21:57;;;;;;;26.93;12.90;;;;;;;;;;5076004;28;20476;-60
2023/01/21 00:24:26;;;;;;;31.83;10.53;;;2.50;99.90;;;;;;5054719;28;20482;-60
2023/01/21 00:26:53;;;;;;;24.53;11.73;;;2.60;99.90;;;;;;5050478;28;20482;-60
2023/01/21 00:29:20;;;;;;;27.70;11.00;;;;;;;;;;5054297;28;20515;-60
2023/01/21 00:31:48;;;;;;;39.30;13.47;;;;;;;;;;5041835;28;20663;-60
2023/01/21 00:34:15;;;;;;;28.53;8.57;;;;;;;;;;5050272;28;20972;-60
2023/01/21 00:36:41;;;;;;;42.60;14.43;;;1.90;99.90;;;;;;5048901;28;20498;-60
2023/01/21 00:39:08;;;;;;;21.97;9.10;;;2.60;99.90;;;;;;5062466;27;20470;-60
2023/01/21 00:41:37;;;;;;;30.03;10.13;;;2.50;99.90;;;;;;5063904;28;20479;-60
2023/01/21 00:44:04;;;;;;;26.40;9.70;;;2.50;99.90;;;;;;5050814;28;21156;-60
2023/01/21 00:46:31;;;;;;;35.80;12.00;;;4.60;99.90;;;;;;5048056;28;20860;-60
2023/01/21 00:48:59;;;;;;;31.33;11.30;;;2.70;99.90;;;;;;5051648;28;20483;-59
2023/01/21 00:51:25;;;;;;;26.97;9.20;;;2.70;99.90;;;;;;5052823;28;20618;-60
2023/01/21 00:53:52;;;;;;;28.13;9.03;;;2.80;99.90;;;;;;5050920;28;20497;-60
2023/01/21 00:56:19;;;;;;;32.27;11.03;;;;;;;;;;5049924;28;21445;-60
2023/01/21 00:58:48;;;;;;;37.30;12.50;;;;;;;;;;5052384;28;20500;-59
2023/01/21 01:01:18;;;;;;;18.87;7.03;;;2.70;99.90;;;;;;5070499;28;20479;-59
2023/01/21 01:03:45;;;;;;;32.03;13.17;;;2.80;99.90;;;;;;5051010;28;20482;-60
2023/01/21 01:06:14;;;;;;;23.83;9.27;;;2.80;99.90;;;;;;5048041;28;20487;-60
2023/01/21 01:08:41;;;;;;;30.90;9.97;;;2.80;99.90;;;;;;5050304;28;20486;-59
2023/01/21 01:11:08;;;;;;;17.53;7.10;;;2.90;99.90;;;;;;5051106;28;20479;-59
2023/01/21 01:13:35;;;;;;;32.80;12.87;;;3.00;99.90;;;;;;5045851;28;20487;-59
2023/01/21 01:16:04;;;;;;;19.07;6.80;;;3.00;99.90;;;;;;5063854;27;20926;-59
2023/01/21 01:18:32;;;;;;;29.10;8.43;;;;;;;;;;5063183;28;20972;-59
2023/01/21 01:21:00;;;;;;;29.40;8.97;;;;;;;;;;5051913;28;20464;-59
2023/01/21 01:23:27;;;;;;;26.43;8.40;;;;;;;;;;5045855;28;20986;-59
2023/01/21 01:25:58;;;;;;;27.40;8.20;;;3.30;99.90;;;;;;5049269;28;20484;-59
2023/01/21 01:28:25;;;;;;;20.73;7.00;;;3.30;99.90;;;;;;5048435;28;20480;-59
2023/01/21 01:30:52;;;;;;;24.90;8.20;;;3.30;99.90;;;;;;5066573;28;20497;-59
2023/01/21 01:33:20;;;;;;;27.20;7.07;;;3.40;99.90;;;;;;5054139;28;20479;-59
2023/01/21 01:35:48;;;;;;;32.00;10.17;;;;;;;;;;5049558;28;21126;-59
2023/01/21 01:38:15;;;;;;;19.90;5.77;;;;;;;;;;5044707;28;20491;-59
2023/01/21 01:40:44;;;;;;;38.40;13.30;;;;;;;;;;5051477;28;20481;-59
2023/01/21 01:43:16;;;;;;;23.13;8.30;;;3.60;99.90;;;;;;5057423;28;20522;-59
2023/01/21 01:45:43;;;;;;;33.03;11.37;;;;;;;;;;5050075;28;20566;-60
2023/01/21 01:48:13;;;;;;;27.57;7.80;;;3.50;99.90;;;;;;5048836;28;20472;-59
2023/01/21 01:50:42;;;;;;;30.93;10.07;;;;;;;;;;5049786;28;20512;-59
2023/01/21 01:53:12;;;;;;;19.30;7.03;;;3.40;99.90;;;;;;5071230;28;20479;-59
2023/01/21 01:55:39;;;;;;;33.90;11.60;;;;;;;;;;5048477;28;20486;-59
2023/01/21 01:58:09;;;;;;;23.27;7.07;;;3.50;99.90;;;;;;5049905;28;20472;-59
2023/01/21 02:00:36;;;;;;;30.87;11.17;;;3.50;99.90;;;;;;5041382;28;20483;-60
2023/01/21 02:05:58;;;;;;;24.93;8.13;;;;;;;;;;5025402;28;20487;-60
2023/01/21 02:08:27;;;;;;;30.93;9.07;;;3.30;99.90;;;;;;5043231;28;20479;-59
2023/01/21 02:10:55;;;;;;;18.63;6.40;;;3.30;99.90;;;;;;5046702;28;20486;-60
2023/01/21 02:13:22;;;;;;;22.77;6.80;;;3.30;99.90;;;;;;5050229;28;20498;-59
2023/01/21 02:15:54;;;;;;;27.13;9.50;;;;;;;;;;5051965;28;20472;-60
2023/01/21 02:18:30;;;;;;;29.47;8.80;;;4.10;99.90;;;;;;5050898;28;21141;-59
2023/01/21 02:21:23;;;;;;;26.27;9.00;;;3.30;99.90;;;;;;5052253;28;20475;-59
2023/01/21 02:24:10;;;;;;;31.97;9.80;;;3.30;99.90;;;;;;5051572;28;20474;-60
2023/01/21 02:27:05;;;;;;;43.90;12.90;;;3.40;99.90;;;;;;5047957;28;20475;-59
2023/01/21 02:29:51;;;;;;;37.60;8.83;;;;;;;;;;5055421;28;20910;-59
2023/01/21 02:32:33;;;;;;;26.23;9.00;;;;;;;;;;5020729;28;20471;-59
2023/01/21 02:35:04;;;;;;;38.93;11.53;;;;;;;;;;5050813;28;20467;-59
2023/01/21 02:37:38;;;;;;;33.97;9.87;;;3.40;99.90;;;;;;5055846;28;20478;-59
2023/01/21 02:40:10;;;;;;;27.47;8.20;;;;;;;;;;5081064;28;20482;-59
2023/01/21 02:42:43;;;;;;;38.73;13.30;;;3.30;99.90;;;;;;5058056;28;20481;-59
2023/01/21 02:45:19;;;;;;;27.20;7.70;;;3.30;99.90;;;;;;5078682;28;20840;-59
2023/01/21 02:47:49;;;;;;;25.90;9.90;;;;;;;;;;5045845;28;20504;-60
2023/01/21 02:50:21;;;;;;;22.43;7.10;;;3.20;99.90;;;;;;5085368;28;20475;-59
2023/01/21 02:52:54;;;;;;;38.93;11.63;;;;;;;;;;5057113;28;20482;-59
2023/01/21 02:55:26;;;;;;;28.23;8.13;;;3.00;99.90;;;;;;5057804;28;20487;-59
2023/01/21 02:57:57;;;;;;;32.57;8.20;;;3.00;99.90;;;;;;5055479;28;20490;-59
2023/01/21 03:00:26;;;;;;;23.80;7.90;;;;;;;;;;5059841;27;20489;-59
2023/01/21 03:03:21;;;;;;;31.40;9.47;;;2.90;99.90;;;;;;5079704;27;20971;-59
2023/01/21 03:06:18;;;;;;;29.20;10.00;;;2.90;99.90;;;;;;5057825;28;21105;-59
2023/01/21 03:08:49;;;;;;;39.40;12.67;;;3.00;99.90;;;;;;5043775;28;20532;-59
2023/01/21 03:11:19;;;;;;;20.93;7.70;;;2.90;99.90;;;;;;5058399;28;20951;-59
2023/01/21 03:16:58;;;;;;;34.97;11.30;;;3.00;99.90;;;;;;5056112;28;20672;-59
2023/01/21 03:19:34;;;;;;;31.97;9.33;;;3.00;99.90;;;;;;5047845;28;20720;-59
2023/01/21 03:22:05;;;;;;;42.67;8.20;;;2.90;99.90;;;;;;5058626;28;20719;-60
2023/01/21 03:24:34;;;;;;;33.13;10.10;;;4.50;99.90;;;;;;5056075;28;20506;-60
2023/01/21 03:27:01;;;;;;;28.87;9.30;;;2.80;99.90;;;;;;5055992;28;20471;-59
2023/01/21 03:29:30;;;;;;;26.40;8.50;;;2.90;99.90;;;;;;5054890;28;20814;-60
2023/01/21 03:32:00;;;;;;;26.00;10.43;;;2.90;99.90;;;;;;5053866;28;20479;-60
2023/01/21 03:34:30;;;;;;;27.80;10.70;;;2.90;99.90;;;;;;5075542;28;20481;-60
2023/01/21 03:37:01;;;;;;;27.20;10.10;;;2.80;99.90;;;;;;5054710;28;20475;-60
2023/01/21 03:39:34;;;;;;;28.50;8.93;;;2.90;99.90;;;;;;5073959;27;20472;-60
2023/01/21 03:42:02;;;;;;;30.30;8.60;;;2.90;99.90;;;;;;5052927;28;20486;-60
2023/01/21 03:44:29;;;;;;;25.40;8.50;;;2.80;99.90;;;;;;5077029;28;20469;-60
2023/01/21 03:47:04;;;;;;;24.03;8.93;;;2.80;99.90;;;;;;5068574;28;20898;-60
2023/01/21 03:49:34;;;;;;;32.60;10.97;;;2.80;99.90;;;;;;5050316;28;20875;-60
2023/01/21 03:52:03;;;;;;;41.30;12.97;;;2.80;99.90;;;;;;5054588;28;20471;-60
2023/01/21 03:54:32;;;;;;;38.83;12.03;;;;;;;;;;5077602;28;20960;-60
2023/01/21 03:56:58;;;;;;;28.90;10.30;;;2.70;99.90;;;;;;5052340;28;20490;-59
2023/01/21 03:59:25;;;;;;;32.30;13.10;;;2.70;99.90;;;;;;5074456;28;20914;-60
2023/01/21 04:01:52;;;;;;;36.67;11.17;;;-0.70;99.90;;;;;;5055170;28;21016;-59
2023/01/21 04:04:18;;;;;;;36.27;13.00;;;2.60;99.90;;;;;;5071310;28;20501;-59
2023/01/21 04:06:45;;;;;;;38.77;15.10;;;2.50;99.90;;;;;;5051898;28;20920;-59
2023/01/21 04:09:12;;;;;;;58.53;14.93;;;;;;;;;;5066964;28;20518;-59
2023/01/21 04:11:40;;;;;;;49.93;18.00;;;2.60;99.90;;;;;;5051250;28;21011;-59
2023/01/21 04:14:07;;;;;;;33.17;11.13;;;;;;;;;;5066110;28;20485;-59
2023/01/21 04:16:34;;;;;;;34.10;12.80;;;2.60;99.90;;;;;;5054953;28;20494;-59
2023/01/21 04:19:01;;;;;;;33.70;13.53;;;2.60;99.90;;;;;;5076353;28;20488;-59
2023/01/21 04:21:27;;;;;;;29.33;13.50;;;2.60;99.90;;;;;;5042226;28;20475;-59
2023/01/21 04:23:54;;;;;;;50.30;12.27;;;2.60;99.90;;;;;;5081754;28;20483;-59
2023/01/21 04:26:21;;;;;;;49.20;15.23;;;;;;;;;;5052419;28;20475;-59
2023/01/21 04:28:49;;;;;;;37.30;14.70;;;-0.20;99.90;;;;;;5053511;28;20482;-59
2023/01/21 04:31:16;;;;;;;27.73;11.50;;;2.60;99.90;;;;;;5075890;28;20725;-59
2023/01/21 04:33:43;;;;;;;44.53;15.60;;;2.70;99.90;;;;;;5057936;28;20490;-59
2023/01/21 04:36:10;;;;;;;23.83;9.83;;;;;;;;;;5051745;28;20895;-59
2023/01/21 04:38:37;;;;;;;63.60;15.80;;;;;;;;;;5055535;28;20478;-59
2023/01/21 04:41:03;;;;;;;33.17;13.10;;;2.70;99.90;;;;;;5059679;28;20500;-59
2023/01/21 04:43:30;;;;;;;30.43;9.83;;;2.60;99.90;;;;;;5068789;28;20485;-59
2023/01/21 04:45:58;;;;;;;43.57;10.97;;;2.60;99.90;;;;;;5081586;27;20992;-59
2023/01/21 04:48:25;;;;;;;34.13;10.13;;;2.50;99.90;;;;;;5068599;28;20473;-59
2023/01/21 04:50:52;;;;;;;29.80;11.40;;;2.50;99.90;;;;;;5075250;28;20967;-59
2023/01/21 04:53:19;;;;;;;44.33;8.40;;;;;;;;;;5029127;28;20468;-59
2023/01/21 04:55:45;;;;;;;39.47;11.90;;;2.30;99.90;;;;;;5050031;28;20834;-59
2023/01/21 04:58:12;;;;;;;26.13;8.80;;;2.30;99.90;;;;;;5030961;28;20830;-59
2023/01/21 05:00:39;;;;;;;47.30;14.20;;;2.20;99.90;;;;;;5064521;28;20496;-59
2023/01/21 05:03:07;;;;;;;34.47;9.83;;;2.30;99.90;;;;;;5070005;28;20885;-59
2023/01/21 05:05:33;;;;;;;29.50;11.00;;;2.30;99.90;;;;;;5047256;28;20490;-59
2023/01/21 05:08:00;;;;;;;39.37;9.43;;;2.30;99.90;;;;;;5043881;28;20475;-58
2023/01/21 05:10:27;;;;;;;33.37;10.80;;;2.30;99.90;;;;;;5033717;28;20471;-59
2023/01/21 05:12:54;;;;;;;29.33;10.70;;;;;;;;;;5073485;28;20509;-59
2023/01/21 05:15:21;;;;;;;32.30;10.03;;;;;;;;;;5045722;28;20485;-59
2023/01/21 05:17:48;;;;;;;34.63;13.40;;;2.30;99.90;;;;;;5066066;28;20917;-59
2023/01/21 05:20:16;;;;;;;19.70;8.53;;;2.30;99.90;;;;;;5045725;28;20493;-61
2023/01/21 05:22:46;;;;;;;34.30;12.10;;;2.30;99.90;;;;;;5062883;28;20497;-60
2023/01/21 05:25:13;;;;;;;21.70;8.30;;;2.20;99.90;;;;;;5041110;28;21046;-60
2023/01/21 05:27:41;;;;;;;31.93;11.50;;;;;;;;;;5065519;28;20500;-59
2023/01/21 05:30:08;;;;;;;36.03;9.00;;;;;;;;;;5057431;28;20482;-59
2023/01/21 05:32:36;;;;;;;41.20;12.17;;;;;;;;;;5044135;28;20494;-59
2023/01/21 05:35:03;;;;;;;34.80;12.33;;;;;;;;;;5071811;28;20478;-59
2023/01/21 05:37:31;;;;;;;38.87;10.60;;;;;;;;;;5048108;28;20492;-59
2023/01/21 05:39:58;;;;;;;33.57;9.60;;;;;;;;;;5071291;28;20486;-58
2023/01/21 05:42:25;;;;;;;34.13;10.17;;;1.60;99.90;;;;;;5062753;28;20470;-59
2023/01/21 05:44:52;;;;;;;31.00;8.37;;;1.60;99.90;;;;;;5074837;28;20839;-59
2023/01/21 05:47:18;;;;;;;27.60;11.67;;;1.50;99.90;;;;;;5068196;28;20477;-59
2023/01/21 05:49:45;;;;;;;43.20;13.77;;;;;;;;;;5041710;28;20481;-59
2023/01/21 05:52:12;;;;;;;34.30;10.20;;;1.40;99.90;;;;;;5059315;28;20483;-59
2023/01/21 05:54:40;;;;;;;42.60;13.80;;;;;;;;;;5070928;28;20918;-59
2023/01/21 05:57:07;;;;;;;50.43;14.13;;;;;;;;;;5045238;28;20834;-59
2023/01/21 05:59:34;;;;;;;47.70;13.37;;;1.30;99.90;;;;;;5082167;28;20487;-59
2023/01/21 06:02:01;;;;;;;30.87;9.70;;;1.30;99.90;;;;;;5044428;28;20487;-59
2023/01/21 06:04:29;;;;;;;29.93;10.50;;;1.30;99.90;;;;;;5068684;28;20488;-59
2023/01/21 06:06:56;;;;;;;36.23;9.83;;;1.30;99.90;;;;;;5049863;28;20588;-59
2023/01/21 06:09:22;;;;;;;30.93;10.13;;;1.30;99.90;;;;;;5073631;28;20904;-59
2023/01/21 06:11:50;;;;;;;27.90;10.30;;;1.30;99.90;;;;;;5053868;28;20502;-59
2023/01/21 06:14:17;;;;;;;40.30;10.87;;;1.30;99.80;;;;;;5054497;28;20475;-59
2023/01/21 06:16:44;;;;;;;40.33;12.23;;;1.20;99.60;;;;;;5054958;28;20560;-59
2023/01/21 06:19:11;;;;;;;31.10;10.67;;;1.30;99.70;;;;;;5054420;28;20479;-59
2023/01/21 06:21:37;;;;;;;49.67;12.27;;;1.20;99.70;;;;;;5055786;28;20483;-59
2023/01/21 06:24:04;;;;;;;28.30;9.77;;;2.80;99.90;;;;;;5055843;28;20959;-59
2023/01/21 06:26:32;;;;;;;43.93;13.10;;;;;;;;;;5054870;28;21219;-59
2023/01/21 06:29:00;;;;;;;31.07;10.07;;;1.10;99.60;;;;;;5054495;28;20496;-59
2023/01/21 06:31:28;;;;;;;34.33;12.57;;;;;;;;;;5070614;28;20730;-59
2023/01/21 06:33:55;;;;;;;41.00;11.87;;;;;;;;;;5050143;28;20847;-59
2023/01/21 06:36:21;;;;;;;40.10;13.57;;;1.00;99.80;;;;;;5084042;28;20483;-59
2023/01/21 06:38:48;;;;;;;41.70;11.40;;;1.00;99.50;;;;;;5053152;28;20490;-59
2023/01/21 06:41:15;;;;;;;25.17;10.23;;;;;;;;;;5054170;28;20502;-59
2023/01/21 06:43:43;;;;;;;40.33;12.33;;;;;;;;;;5053092;28;20978;-59
2023/01/21 06:46:11;;;;;;;28.23;10.53;;;;;;;;;;5049325;28;20487;-59
2023/01/21 06:48:38;;;;;;;49.43;17.13;;;0.90;99.50;;;;;;5050104;28;20862;-59
2023/01/21 06:51:05;;;;;;;32.10;11.97;;;0.90;99.40;;;;;;5051044;28;20484;-59
2023/01/21 06:53:32;;;;;;;36.77;13.03;;;;;;;;;;5061228;28;20680;-59
2023/01/21 06:55:59;;;;;;;45.73;13.27;;;;;;;;;;5043448;28;20489;-58
2023/01/21 06:58:25;;;;;;;40.13;11.53;;;0.80;99.40;;;;;;5058521;28;20483;-59
2023/01/21 07:00:56;;;;;;;36.50;14.03;;;;;;;;;;5039308;28;20744;-59
2023/01/21 07:03:24;;;;;;;41.33;14.43;;;;;;;;;;5082061;28;20592;-59
2023/01/21 07:05:51;;;;;;;35.03;12.63;;;;;;;;;;5074163;28;20481;-59
2023/01/21 07:08:18;;;;;;;35.73;13.63;;;0.70;99.00;;;;;;5051858;28;20483;-59
2023/01/21 07:10:45;;;;;;;39.83;13.93;;;;;;;;;;5055754;28;20487;-59
2023/01/21 07:13:12;;;;;;;21.70;10.30;;;0.60;99.20;;;;;;5054819;28;21059;-59
2023/01/21 07:15:39;;;;;;;41.43;13.67;;;;;;;;;;5057240;28;20510;-59
2023/01/21 07:18:06;;;;;;;35.23;11.27;;;;;;;;;;5054522;28;20483;-59
2023/01/21 07:20:34;;;;;;;49.63;15.17;;;;;;;;;;5058879;28;20474;-59
2023/01/21 07:23:01;;;;;;;40.07;12.50;;;;;;;;;;5058168;28;20713;-59
2023/01/21 07:25:28;;;;;;;47.17;13.80;;;0.60;98.80;;;;;;5058411;28;20483;-59
2023/01/21 07:27:55;;;;;;;40.93;14.70;;;0.60;99.00;;;;;;5057369;28;20475;-59
2023/01/21 07:30:21;;;;;;;34.53;11.63;;;0.50;99.00;;;;;;5053636;28;20492;-59
2023/01/21 07:32:48;;;;;;;34.87;12.50;;;;;;;;;;5077429;28;20977;-59
2023/01/21 07:35:15;;;;;;;27.10;11.07;;;;;;;;;;5056359;28;21104;-59
2023/01/21 07:37:43;;;;;;;56.00;16.50;;;0.40;99.60;;;;;;5056572;28;20482;-59
2023/01/21 07:40:11;;;;;;;27.50;11.33;;;0.40;99.70;;;;;;5057630;28;20483;-59
2023/01/21 07:42:38;;;;;;;44.10;15.83;;;;;;;;;;5058226;28;20794;-59
2023/01/21 07:45:06;;;;;;;41.93;12.73;;;0.50;99.70;;;;;;5066520;28;20494;-59
2023/01/21 07:47:33;;;;;;;46.57;15.77;;;;;;;;;;5062575;28;20887;-59
2023/01/21 07:50:03;;;;;;;33.63;12.67;;;0.60;99.80;;;;;;5047495;28;20494;-59
2023/01/21 07:52:30;;;;;;;35.50;12.47;;;0.70;99.90;;;;;;5054461;28;20485;-59
2023/01/21 07:55:00;;;;;;;50.73;13.70;;;0.70;99.80;;;;;;5069526;28;20476;-59
2023/01/21 07:57:27;;;;;;;45.30;14.50;;;0.80;99.80;;;;;;5052374;28;20483;-59
2023/01/21 07:59:54;;;;;;;35.90;12.27;;;0.80;99.80;;;;;;5052515;28;20493;-59
2023/01/21 08:02:21;;;;;;;45.80;13.90;;;;;;;;;;5083156;28;20854;-59
2023/01/21 08:04:47;;;;;;;43.73;14.60;;;0.80;99.90;;;;;;5062012;28;20524;-59
2023/01/21 08:07:14;;;;;;;33.10;12.90;;;0.80;99.90;;;;;;5075895;28;20476;-59
2023/01/21 08:09:41;;;;;;;44.00;16.20;;;0.90;99.90;;;;;;5074900;28;20485;-59
2023/01/21 08:12:09;;;;;;;45.17;13.30;;;0.90;99.90;;;;;;5042441;28;20479;-59
2023/01/21 08:14:37;;;;;;;44.20;16.77;;;;;;;;;;5071333;28;20475;-59
2023/01/21 08:17:04;;;;;;;39.97;14.33;;;;;;;;;;5049802;28;20569;-59
2023/01/21 08:19:31;;;;;;;41.57;14.17;;;1.40;99.90;;;;;;5063782;28;21111;-59
2023/01/21 08:22:05;;;;;;;40.80;15.27;;;2.30;99.90;;;;;;5049306;28;20476;-58
2023/01/21 08:24:34;;;;;;;52.77;17.73;;;3.50;99.90;;;;;;5050445;28;20494;-59
2023/01/21 08:27:02;;;;;;;49.60;17.93;;;;;;;;;;5051114;28;20471;-59
2023/01/21 08:29:30;;;;;;;42.93;17.10;;;;;;;;;;5053293;28;20508;-59
2023/01/21 08:31:58;;;;;;;49.53;16.07;;;;;;;;;;5067218;28;20467;-59
2023/01/21 08:34:25;;;;;;;34.83;14.77;;;;;;;;;;5065825;28;20485;-59
2023/01/21 08:36:52;;;;;;;42.93;18.17;;;;;;;;;;5074573;28;20538;-59
2023/01/21 08:39:19;;;;;;;42.37;17.60;;;;;;;;;;5037841;28;20473;-59
2023/01/21 08:41:46;;;;;;;41.97;19.33;;;7.50;93.90;;;;;;5063736;28;20491;-59
2023/01/21 08:44:12;;;;;;;36.73;13.80;;;7.40;92.80;;;;;;5073032;28;20476;-59
2023/01/21 08:46:40;;;;;;;49.27;19.90;;;7.50;92.60;;;;;;5050930;28;20482;-59
2023/01/21 08:49:07;;;;;;;29.37;14.20;;;7.20;92.20;;;;;;5065258;28;20821;-60
2023/01/21 08:51:34;;;;;;;41.83;16.90;;;;;;;;;;5050997;28;21140;-60
2023/01/21 08:54:01;;;;;;;41.90;14.70;;;7.30;92.50;;;;;;5063919;28;20812;-59
2023/01/21 08:56:28;;;;;;;45.37;19.57;;;7.20;92.10;;;;;;5053088;28;20920;-60
2023/01/21 08:58:55;;;;;;;39.23;17.93;;;7.10;92.10;;;;;;5064345;28;20855;-60
2023/01/21 09:01:22;;;;;;;35.50;15.77;;;6.70;91.70;;;;;;5054146;28;20594;-59
2023/01/21 09:03:54;;;;;;;44.73;15.93;;;6.40;92.10;;;;;;5046600;28;21073;-60
2023/01/21 09:06:21;;;;;;;36.23;17.20;;;;;;;;;;5050061;28;20479;-60
2023/01/21 09:08:48;;;;;;;45.17;17.53;;;;;;;;;;5055678;28;20560;-59
2023/01/21 09:11:15;;;;;;;32.60;12.70;;;;;;;;;;5057104;28;20483;-60
2023/01/21 09:13:43;;;;;;;49.80;15.83;;;;;;;;;;5055171;28;20487;-59
2023/01/21 09:16:11;;;;;;;47.40;14.50;;;;;;;;;;5055058;28;20472;-59
2023/01/21 09:18:38;;;;;;;37.10;12.57;;;3.90;94.10;;;;;;5054743;28;20607;-60
2023/01/21 09:21:07;;;;;;;25.53;11.27;;;;;;;;;;5043044;28;20490;-59
2023/01/21 09:23:34;;;;;;;46.50;13.43;;;;;;;;;;5078991;28;21001;-59
2023/01/21 09:26:03;;;;;;;34.63;12.93;;;3.10;95.50;;;;;;5063182;28;20483;-59
2023/01/21 09:28:30;;;;;;;31.53;11.57;;;3.10;95.70;;;;;;5060893;28;20552;-59
2023/01/21 09:30:58;;;;;;;34.87;12.43;;;;;;;;;;5054277;28;20867;-59
2023/01/21 09:33:25;;;;;;;35.40;14.50;;;3.30;96.00;;;;;;5059561;28;20488;-59
2023/01/21 09:35:55;;;;;;;44.87;15.13;;;3.40;95.90;;;;;;5057523;28;20489;-59
2023/01/21 09:38:23;;;;;;;32.97;12.03;;;;;;;;;;5050254;28;20490;-59
2023/01/21 09:40:50;;;;;;;37.63;13.07;;;3.60;95.70;;;;;;5060047;28;20473;-59
2023/01/21 09:43:20;;;;;;;31.63;12.43;;;;;;;;;;5068743;28;20486;-59
2023/01/21 09:45:48;;;;;;;46.80;15.53;;;3.70;95.70;;;;;;5033475;28;20490;-59
2023/01/21 09:48:23;;;;;;;32.80;12.47;;;3.80;95.70;;;;;;5055331;28;20790;-59
2023/01/21 09:50:51;;;;;;;43.77;13.53;;;3.80;95.60;;;;;;5048749;28;21370;-58
2023/01/21 09:53:32;;;;;;;43.20;12.57;;;3.80;95.50;;;;;;5056905;28;20479;-59
2023/01/21 09:56:04;;;;;;;41.90;14.10;;;3.90;95.60;;;;;;5040696;28;21030;-59
2023/01/21 09:58:38;;;;;;;41.20;12.37;;;3.90;95.30;;;;;;5073420;28;20479;-59
2023/01/21 10:01:08;;;;;;;35.90;9.73;;;;;;;;;;5056321;28;20749;-59
2023/01/21 10:03:42;;;;;;;48.83;14.90;;;3.90;95.40;;;;;;5083869;28;21055;-59
2023/01/21 10:06:28;;;;;;;35.03;12.40;;;3.80;95.30;;;;;;5044470;28;20479;-60
2023/01/21 10:09:22;;;;;;;36.93;11.83;;;3.70;95.30;;;;;;5064710;28;20477;-60
2023/01/21 10:12:08;;;;;;;34.97;14.43;;;3.60;95.70;;;;;;5061226;28;20489;-60
2023/01/21 10:14:52;;;;;;;29.17;11.07;;;3.50;95.70;;;;;;5065367;28;20478;-60
2023/01/21 10:17:31;;;;;;;34.73;12.50;;;3.50;95.70;;;;;;5059566;28;20981;-60
2023/01/21 10:20:01;;;;;;;48.37;14.30;;;;;;;;;;5037251;28;20949;-60
2023/01/21 10:22:28;;;;;;;41.33;13.00;;;;;;;;;;5068341;28;20598;-60
2023/01/21 10:25:00;;;;;;;47.50;13.60;;;;;;;;;;5055734;28;20467;-60
2023/01/21 10:27:29;;;;;;;44.23;13.93;;;3.60;95.70;;;;;;5055513;28;20570;-60
2023/01/21 10:30:01;;;;;;;30.53;9.73;;;3.40;95.60;;;;;;5041324;28;20483;-60
2023/01/21 10:32:28;;;;;;;27.47;10.43;;;3.30;95.80;;;;;;5064633;28;20855;-59
2023/01/21 10:34:57;;;;;;;28.97;10.33;;;3.10;95.90;;;;;;5046333;28;20485;-59
2023/01/21 10:37:28;;;;;;;47.57;14.63;;;;;;;;;;5047386;28;20512;-60
2023/01/21 10:40:02;;;;;;;37.13;11.63;;;3.00;96.50;;;;;;5032379;28;20482;-60
2023/01/21 10:42:39;;;;;;;49.67;13.00;;;;;;;;;;5046838;28;20733;-60
2023/01/21 10:45:15;;;;;;;43.17;14.07;;;3.00;96.80;;;;;;5043419;28;20853;-60
2023/01/21 10:47:45;;;;;;;38.60;14.10;;;;;;;;;;5041343;28;20769;-60
2023/01/21 10:50:24;;;;;;;35.97;11.50;;;3.10;96.90;;;;;;5075465;28;20496;-60
2023/01/21 10:52:57;;;;;;;34.40;11.97;;;3.00;96.90;;;;;;5060138;28;20836;-60
2023/01/21 10:55:34;;;;;;;39.67;13.30;;;2.90;97.00;;;;;;5057343;28;20497;-61
2023/01/21 10:58:04;;;;;;;40.83;13.97;;;3.00;97.10;;;;;;5050410;28;20643;-60
2023/01/21 11:00:35;;;;;;;41.10;13.57;;;2.90;96.80;;;;;;5063806;28;20483;-61
2023/01/21 11:03:08;;;;;;;36.70;11.43;;;2.90;96.80;;;;;;5053405;28;20988;-61
2023/01/21 11:05:35;;;;;;;48.70;15.50;;;;;;;;;;5078200;27;20472;-60
2023/01/21 11:08:02;;;;;;;43.30;13.57;;;;;;;;;;5070489;28;20519;-60
2023/01/21 11:10:31;;;;;;;41.87;13.43;;;;;;;;;;5068592;28;20580;-60
2023/01/21 11:12:58;;;;;;;42.50;11.30;;;;;;;;;;5063082;28;21041;-61
2023/01/21 11:15:29;;;;;;;43.33;14.57;;;3.00;97.20;;;;;;5074872;28;21145;-60
2023/01/21 11:17:57;;;;;;;33.20;10.80;;;3.10;96.90;;;;;;5047519;28;20844;-60
2023/01/21 11:20:32;;;;;;;65.57;15.17;;;3.20;97.10;;;;;;5087013;28;20475;-60
2023/01/21 11:22:58;;;;;;;52.73;15.70;;;3.40;97.20;;;;;;5041268;28;20967;-60
2023/01/21 11:25:30;;;;;;;33.53;12.33;;;3.40;96.80;;;;;;5051679;28;20807;-60
2023/01/21 11:27:58;;;;;;;46.57;14.03;;;3.50;96.70;;;;;;5041923;28;20481;-61
2023/01/21 11:30:31;;;;;;;40.50;13.60;;;3.50;96.70;;;;;;5042130;28;20870;-59
2023/01/21 11:33:21;;;;;;;31.33;10.93;;;3.40;96.20;;;;;;5047306;28;20482;-59
2023/01/21 11:35:48;;;;;;;47.50;16.00;;;;;;;;;;5067908;28;20613;-60
2023/01/21 11:38:25;;;;;;;47.10;15.70;;;3.40;96.20;;;;;;5051345;28;20928;-60
2023/01/21 11:41:03;;;;;;;47.10;14.20;;;3.40;96.30;;;;;;5083575;28;21331;-60
2023/01/21 11:43:36;;;;;;;49.40;14.97;;;;;;;;;;5054629;28;20474;-60
2023/01/21 11:46:23;;;;;;;44.47;11.63;;;;;;;;;;5077261;28;20490;-60
2023/01/21 11:48:49;;;;;;;46.43;15.00;;;3.30;96.50;;;;;;5042079;28;20479;-60
2023/01/21 11:51:16;;;;;;;37.50;13.20;;;3.30;96.30;;;;;;5062759;28;20485;-60
2023/01/21 11:53:45;;;;;;;54.17;15.23;;;3.20;95.90;;;;;;5078477;28;20586;-60
2023/01/21 11:56:13;;;;;;;30.97;7.90;;;3.10;95.60;;;;;;5068755;28;21105;-60
2023/01/21 11:58:42;;;;;;;48.10;10.33;;;3.00;95.50;;;;;;5081335;28;20497;-60
2023/01/21 12:01:18;;;;;;;35.50;10.90;;;2.90;96.00;;;;;;5058349;28;20490;-60
2023/01/21 12:03:49;;;;;;;47.13;12.40;;;3.00;95.90;;;;;;5058741;28;20829;-60
2023/01/21 12:06:20;;;;;;;32.63;9.00;;;2.70;95.80;;;;;;5055689;28;20535;-60
2023/01/21 12:08:49;;;;;;;40.10;12.33;;;;;;;;;;5066921;28;20485;-60
2023/01/21 12:11:21;;;;;;;34.37;8.83;;;2.60;95.70;;;;;;5049681;28;20861;-60
2023/01/21 12:13:59;;;;;;;26.20;8.90;;;2.60;96.00;;;;;;5069373;28;20477;-59
2023/01/21 12:16:32;;;;;;;41.73;13.73;;;2.50;96.00;;;;;;5040604;28;20487;-60
2023/01/21 12:19:24;;;;;;;36.67;9.13;;;2.50;96.40;;;;;;5057419;28;20470;-59
2023/01/21 12:22:19;;;;;;;48.30;13.90;;;3.50;96.80;;;;;;5051784;28;20720;-60
2023/01/21 12:24:59;;;;;;;63.27;16.13;;;2.70;96.40;;;;;;5037178;28;20483;-60
2023/01/21 12:27:36;;;;;;;39.47;10.30;;;2.70;96.10;;;;;;5059651;28;20826;-59
2023/01/21 12:30:10;;;;;;;29.90;9.60;;;;;;;;;;5050476;28;20549;-60
2023/01/21 12:32:39;;;;;;;62.10;15.90;;;;;;;;;;5084469;28;20974;-60
2023/01/21 12:35:13;;;;;;;24.93;6.77;;;2.70;96.00;;;;;;5051599;28;20493;-60
2023/01/21 12:37:45;;;;;;;37.77;11.23;;;;;;;;;;5054921;28;20976;-60
2023/01/21 12:40:17;;;;;;;28.80;11.03;;;2.90;96.60;;;;;;5052187;28;20501;-60
2023/01/21 12:42:48;;;;;;;45.10;12.67;;;2.90;96.40;;;;;;5053348;28;21168;-59
2023/01/21 12:45:20;;;;;;;32.17;10.83;;;2.80;96.10;;;;;;5069532;28;20506;-59
2023/01/21 12:47:53;;;;;;;38.50;12.33;;;2.70;96.20;;;;;;5068402;28;20474;-59
2023/01/21 12:50:28;;;;;;;49.30;13.30;;;2.70;96.30;;;;;;5056330;28;20484;-60
2023/01/21 12:53:01;;;;;;;33.60;8.97;;;;;;;;;;5047759;28;20507;-59
2023/01/21 12:55:31;;;;;;;51.17;11.87;;;;;;;;;;5061762;28;20777;-59
2023/01/21 12:58:02;;;;;;;32.57;11.03;;;2.60;96.40;;;;;;5053681;28;20488;-60
2023/01/21 13:00:33;;;;;;;30.40;8.50;;;2.50;96.30;;;;;;5041458;28;20474;-59
2023/01/21 13:03:12;;;;;;;40.60;7.20;;;2.40;96.10;;;;;;5077746;27;20475;-59
2023/01/21 13:05:42;;;;;;;47.60;13.17;;;;;;;;;;5045998;28;20715;-61
2023/01/21 13:08:31;;;;;;;36.23;9.77;;;2.10;96.40;;;;;;5058854;28;21272;-60
2023/01/21 13:11:03;;;;;;;35.47;7.23;;;2.10;96.40;;;;;;5054380;28;20484;-60
2023/01/21 13:13:31;;;;;;;41.27;11.60;;;;;;;;;;5028703;28;20472;-60
2023/01/21 13:16:05;;;;;;;36.33;8.73;;;2.00;96.30;;;;;;5070315;28;20473;-60
2023/01/21 13:18:35;;;;;;;39.53;9.73;;;2.00;96.60;;;;;;5023612;28;20522;-60
2023/01/21 13:21:11;;;;;;;44.70;10.20;;;1.90;96.50;;;;;;5058250;28;20483;-60
2023/01/21 13:23:45;;;;;;;36.63;12.23;;;1.90;96.70;;;;;;5066467;28;20492;-60
2023/01/21 13:26:19;;;;;;;41.80;11.07;;;2.00;97.10;;;;;;5058805;28;20938;-60
2023/01/21 13:28:48;;;;;;;43.23;11.77;;;;;;;;;;5039755;28;20479;-60
2023/01/21 13:31:20;;;;;;;30.10;9.13;;;;;;;;;;5046828;28;20897;-60